Thermopolis, WY (82443)

1:26 AM MDT on July 23, 2014 (GMT -0600)
APRSWXNET Thermopolis WY US (MC8386) Elev 4425 ft | 43.64 °N, 108.23 °W | Change Station

Current weather conditions updated 26 minutes ago

Partly Cloudy
Partly Cloudy
69 °F
Feels Like 69 °F
N
0
Wind Variable Wind from North
Gusts 0.0 mph

Today is forecast to be Warmer than yesterday.

Today
High -- | Low -- °F
--% Chance of Precip.
Yesterday
High -- | Low -- °F
Precip. -- in
5:52 AM 8:45 PM
Waning Crescent, 12% visible
Pressure 30.05 in
Visibility 10.0 miles
Clouds Clear
Dew Point 45 °F
Humidity 42%
Rainfall 0.00 in
Snow Depth Not available.
UV 0 out of 12
Pollen 6.00 out of 12
Air Quality Not available.
Flu Activity Not available.
METAR KWRL 230653Z AUTO 17007KT 10SM CLR 21/09 A3020 RMK AO2 SLP175 T02110089 403670133

More Conditions Fewer Conditions

Pressure 30.05 in
Visibility 10.0 miles
Clouds Clear
Dew Point 45 °F
Humidity 42%
Rainfall 0.00 in
Snow Depth Not available.
UV 0 out of 12
Pollen 6.00 out of 12
Air Quality Not available.
Flu Activity Not available.
METAR KWRL 230653Z AUTO 17007KT 10SM CLR 21/09 A3020 RMK AO2 SLP175 T02110089 403670133

More Conditions Fewer Conditions

10-Day Weather Forecast

Almanac

Astronomy

Jul. 23, 2014 Rise Set
Actual Time 5:52 AM MDT 8:45 PM MDT
Civil Twilight 5:18 AM MDT 9:19 PM MDT
Nautical Twilight 4:36 AM MDT 10:02 PM MDT
Astronomical Twilight 3:45 AM MDT 10:51 PM MDT
Moon 3:14 AM MDT 6:16 PM MDT
Length of Visible Light 16h 00m
Length of Day
14h 52m
Tomorrow will be 1m 58s shorter.
Waning Crescent, 12% of the Moon is Illuminated
Today
Waning Crescent
Jul 26
New
Aug 3
First Quarter
Aug 10
Full
Aug 17
Last Quarter

Today's Extremes

State Highs State Lows

Community

WunderPhotos

Upload Photos

1,736,527 photos uploaded!

Nearby

Snow Depth

Station Depth Elevation
Townsend Creek 1 in 8700 ft
Gunsight Pass 2 in 9820 ft
Big Sandy Opening 1 in 9080 ft
Kendall R.S. 1 in 7740 ft
Gros Ventre Summit 1 in 8750 ft

Earthquake Activity

City Distance Mag. Time & Date
No recent earthquake activity has been reported nearby.
Minimum magnitude displayed is 2.5.

Coastal Water Temperatures

Place Temperature
No Stations Reporting

Nearby Weather Stations

Station Location Temp. Heat Index Dew Point Humidity Wind Precip. Elev Updated Type
APRSWXNET Thermopolis WY , Thermopolis, WY 69 °F - 45 °F 42% North  at  0 mph 0.00 in / hr 4425 ft 1:00 AM MDT MADIS
APRSWXNET Kirby WY , Kirby, WY 71 °F 77 °F 47 °F 42% WSW  at  2 mph 0.00 in / hr 4350 ft 1:02 AM MDT MADIS
HADS BOYSEN RESERVOIR WEATHER STATION WY, Shoshoni, WY 80 °F 78 °F - - NNE  at  14 mph 0.00 in / hr 4708 ft 12:30 AM MDT MADIS

Show More Stations Show Fewer Stations